createdAt,value
2023-02-13T00:01:26.560Z,42.70
2023-02-13T00:03:54.927Z,42.20
2023-02-13T00:06:23.268Z,42.00
2023-02-13T00:08:52.786Z,42.20
2023-02-13T00:11:21.091Z,41.80
2023-02-13T00:13:49.317Z,42.00
2023-02-13T00:16:17.591Z,42.30
2023-02-13T00:18:45.805Z,42.30
2023-02-13T00:21:17.405Z,41.60
2023-02-13T00:23:45.651Z,41.50
2023-02-13T00:26:17.036Z,41.40
2023-02-13T00:28:46.498Z,41.20
2023-02-13T00:31:19.910Z,41.10
2023-02-13T00:33:49.352Z,42.00
2023-02-13T00:36:20.147Z,42.40
2023-02-13T00:38:48.773Z,42.10
2023-02-13T00:41:21.164Z,41.70
2023-02-13T00:43:50.202Z,41.40
2023-02-13T00:46:18.953Z,41.50
2023-02-13T00:48:47.312Z,41.60
2023-02-13T00:51:17.385Z,41.50
2023-02-13T00:53:45.582Z,41.90
2023-02-13T00:56:13.801Z,41.80
2023-02-13T00:58:47.529Z,41.50
2023-02-13T01:01:15.995Z,42.50
2023-02-13T01:03:44.302Z,42.80
2023-02-13T01:06:12.507Z,42.60
2023-02-13T01:08:41.559Z,42.30
2023-02-13T01:11:10.822Z,42.70
2023-02-13T01:13:39.298Z,42.90
2023-02-13T01:16:09.455Z,43.30
2023-02-13T01:18:38.085Z,44.00
2023-02-13T01:21:10.130Z,46.20
2023-02-13T01:23:39.677Z,46.50
2023-02-13T01:26:09.826Z,45.60
2023-02-13T01:28:38.083Z,46.90
2023-02-13T01:31:07.986Z,47.40
2023-02-13T01:33:36.702Z,47.50
2023-02-13T01:36:08.326Z,48.40
2023-02-13T01:38:38.780Z,49.90
2023-02-13T01:41:09.973Z,49.40
2023-02-13T01:43:47.757Z,49.60
2023-02-13T01:46:20.339Z,50.20
2023-02-13T01:48:50.506Z,51.10
2023-02-13T01:51:22.235Z,51.50
2023-02-13T01:53:54.591Z,52.20
2023-02-13T01:56:29.472Z,52.10
2023-02-13T01:59:01.775Z,52.50
2023-02-13T02:01:35.177Z,52.50
2023-02-13T02:04:11.201Z,52.40
2023-02-13T02:06:43.133Z,51.40
2023-02-13T02:09:15.075Z,51.00
2023-02-13T02:12:00.186Z,50.90
2023-02-13T02:14:29.196Z,49.70
2023-02-13T02:16:59.919Z,49.90
2023-02-13T02:19:37.735Z,50.70
2023-02-13T02:22:38.620Z,51.30
2023-02-13T02:25:55.308Z,51.40
2023-02-13T02:29:01.852Z,52.20
2023-02-13T02:32:17.655Z,53.20
2023-02-13T02:34:57.445Z,53.60
2023-02-13T02:37:44.818Z,55.40
2023-02-13T02:40:25.236Z,57.10
2023-02-13T02:43:10.661Z,57.80
2023-02-13T02:45:45.713Z,58.00
2023-02-13T02:48:47.034Z,58.90
2023-02-13T02:51:23.113Z,59.30
2023-02-13T02:54:24.355Z,59.70
2023-02-13T02:56:55.532Z,60.00
2023-02-13T02:59:48.653Z,59.60
2023-02-13T03:02:43.940Z,59.50
2023-02-13T03:05:34.270Z,59.00
2023-02-13T03:08:05.424Z,58.70
2023-02-13T03:10:55.340Z,58.50
2023-02-13T03:13:43.171Z,56.60
2023-02-13T03:16:35.537Z,56.10
2023-02-13T03:19:21.546Z,56.00
2023-02-13T03:22:11.961Z,55.90
2023-02-13T03:24:48.768Z,55.10
2023-02-13T03:27:41.845Z,55.00
2023-02-13T03:30:20.269Z,55.40
2023-02-13T03:32:55.958Z,55.00
2023-02-13T03:35:51.676Z,55.50
2023-02-13T03:38:25.447Z,57.20
2023-02-13T03:41:19.857Z,57.90
2023-02-13T03:44:09.374Z,57.80
2023-02-13T03:46:41.854Z,57.90
2023-02-13T03:49:36.092Z,58.10
2023-02-13T03:52:07.574Z,58.30
2023-02-13T03:55:00.400Z,58.50
2023-02-13T03:57:50.270Z,59.20
2023-02-13T04:00:20.654Z,59.20
2023-02-13T04:03:02.135Z,59.60
2023-02-13T04:05:34.119Z,60.30
2023-02-13T04:08:02.368Z,59.90
2023-02-13T04:10:35.518Z,59.80
2023-02-13T04:13:13.285Z,59.70
2023-02-13T04:15:47.035Z,59.90
2023-02-13T04:18:19.284Z,59.60
2023-02-13T04:20:47.899Z,60.60
2023-02-13T04:23:16.716Z,60.50
2023-02-13T04:25:47.198Z,60.40
2023-02-13T04:28:17.807Z,59.80
2023-02-13T04:30:46.346Z,59.80
2023-02-13T04:33:14.729Z,58.90
2023-02-13T04:35:45.201Z,59.00
2023-02-13T04:38:13.389Z,58.50
2023-02-13T04:40:41.633Z,58.60
2023-02-13T04:43:09.796Z,59.20
2023-02-13T04:45:39.367Z,57.80
2023-02-13T04:48:07.544Z,57.30
2023-02-13T04:50:36.208Z,57.30
2023-02-13T04:53:04.364Z,57.50
2023-02-13T04:55:32.742Z,57.60
2023-02-13T04:58:02.825Z,57.50
2023-02-13T05:00:34.088Z,57.70
2023-02-13T05:03:07.037Z,57.90
2023-02-13T05:05:36.134Z,58.50
2023-02-13T05:08:04.523Z,57.90
2023-02-13T05:10:32.980Z,58.00
2023-02-13T05:13:01.390Z,57.90
2023-02-13T05:15:29.853Z,57.40
2023-02-13T05:17:58.073Z,56.80
2023-02-13T05:20:27.656Z,56.50
2023-02-13T05:23:13.626Z,56.40
2023-02-13T05:25:43.723Z,56.20
2023-02-13T05:28:25.806Z,56.40
2023-02-13T05:30:54.379Z,56.10
2023-02-13T05:33:22.614Z,55.70
2023-02-13T05:35:52.354Z,55.80
2023-02-13T05:38:20.516Z,55.30
2023-02-13T05:40:48.670Z,54.90
2023-02-13T05:43:16.859Z,53.90
2023-02-13T05:45:45.000Z,53.50
2023-02-13T05:48:13.344Z,53.10
2023-02-13T05:50:41.541Z,52.20
2023-02-13T05:53:11.085Z,51.70
2023-02-13T05:55:40.468Z,51.80
2023-02-13T05:58:09.481Z,51.90
2023-02-13T06:00:37.754Z,52.20
2023-02-13T06:03:06.103Z,51.70
2023-02-13T06:05:34.268Z,51.30
2023-02-13T06:08:04.411Z,51.60
2023-02-13T06:10:34.348Z,52.10
2023-02-13T06:13:05.279Z,52.40
2023-02-13T06:15:33.705Z,52.40
2023-02-13T06:18:02.169Z,53.10
2023-02-13T06:20:31.998Z,53.10
2023-02-13T06:23:00.214Z,52.80
2023-02-13T06:25:29.984Z,53.30
2023-02-13T06:27:59.681Z,53.90
2023-02-13T06:30:27.996Z,54.20
2023-02-13T06:32:56.185Z,53.70
2023-02-13T06:35:24.397Z,54.10
2023-02-13T06:37:52.736Z,54.50
2023-02-13T06:40:21.153Z,54.00
2023-02-13T06:42:49.300Z,54.00
2023-02-13T06:45:18.992Z,53.80
2023-02-13T06:47:48.883Z,53.80
2023-02-13T06:50:18.695Z,54.20
2023-02-13T06:52:51.736Z,54.00
2023-02-13T06:55:20.741Z,53.90
2023-02-13T06:57:49.044Z,53.80
2023-02-13T07:00:20.205Z,54.10
2023-02-13T07:02:48.927Z,54.70
2023-02-13T07:05:17.384Z,55.70
2023-02-13T07:07:45.584Z,55.70
2023-02-13T07:10:15.365Z,55.50
2023-02-13T07:12:45.777Z,54.80
2023-02-13T07:15:18.880Z,54.10
2023-02-13T07:17:47.066Z,53.60
2023-02-13T07:20:17.855Z,53.50
2023-02-13T07:22:46.024Z,52.80
2023-02-13T07:25:14.353Z,52.40
2023-02-13T07:27:42.543Z,52.00
2023-02-13T07:30:11.492Z,52.10
2023-02-13T07:32:41.057Z,51.90
2023-02-13T07:35:09.505Z,52.90
2023-02-13T07:37:37.663Z,53.40
2023-02-13T07:40:06.847Z,53.90
2023-02-13T07:42:35.702Z,54.50
2023-02-13T07:45:05.584Z,54.50
2023-02-13T07:47:34.821Z,54.30
2023-02-13T07:50:07.087Z,54.90
2023-02-13T07:52:41.361Z,54.40
2023-02-13T07:55:11.480Z,54.10
2023-02-13T07:57:39.723Z,54.40
2023-02-13T08:00:09.362Z,53.90
2023-02-13T08:02:40.327Z,53.10
2023-02-13T08:05:10.372Z,52.30
2023-02-13T08:07:38.612Z,52.90
2023-02-13T08:10:27.462Z,53.70
2023-02-13T08:12:56.162Z,54.50
2023-02-13T08:15:24.347Z,54.80
2023-02-13T08:17:53.102Z,55.50
2023-02-13T08:20:23.986Z,54.60
2023-02-13T08:22:52.171Z,54.90
2023-02-13T08:25:20.566Z,54.90
2023-02-13T08:27:48.851Z,54.00
2023-02-13T08:30:17.610Z,53.40
2023-02-13T08:32:54.380Z,54.30
2023-02-13T08:35:27.011Z,53.30
2023-02-13T08:37:57.727Z,53.90
2023-02-13T08:40:26.100Z,54.50
2023-02-13T08:42:55.861Z,55.00
2023-02-13T08:45:25.103Z,55.70
2023-02-13T08:47:56.388Z,55.80
2023-02-13T08:50:26.510Z,55.30
2023-02-13T08:52:57.344Z,55.90
2023-02-13T08:55:25.511Z,55.90
2023-02-13T08:57:53.680Z,55.80
2023-02-13T09:00:22.723Z,56.50
2023-02-13T09:02:50.916Z,56.90
2023-02-13T09:05:19.098Z,56.30
2023-02-13T09:07:48.642Z,56.10
2023-02-13T09:10:17.195Z,55.90
2023-02-13T09:12:53.455Z,56.20
2023-02-13T09:15:21.821Z,56.70
2023-02-13T09:17:55.373Z,56.50
2023-02-13T09:20:23.661Z,55.90
2023-02-13T09:22:53.193Z,56.50
2023-02-13T09:25:21.694Z,57.50
2023-02-13T09:27:49.922Z,57.80
2023-02-13T09:30:23.483Z,57.70
2023-02-13T09:32:52.199Z,58.50
2023-02-13T09:35:20.997Z,57.90
2023-02-13T09:37:49.598Z,57.70
2023-02-13T09:40:24.318Z,57.90
2023-02-13T09:42:53.759Z,58.40
2023-02-13T09:45:23.008Z,58.10
2023-02-13T09:47:54.362Z,58.70
2023-02-13T09:50:27.883Z,58.90
2023-02-13T09:53:00.376Z,59.40
2023-02-13T09:55:37.276Z,60.00
2023-02-13T09:58:16.159Z,58.70
2023-02-13T10:00:50.834Z,57.50
2023-02-13T10:03:30.641Z,57.50
2023-02-13T10:06:09.585Z,57.50
2023-02-13T10:08:58.679Z,57.00
2023-02-13T10:11:42.687Z,56.90
2023-02-13T10:14:18.603Z,57.10
2023-02-13T10:16:51.737Z,57.30
2023-02-13T10:19:37.396Z,56.60
2023-02-13T10:22:11.566Z,57.10
2023-02-13T10:24:44.975Z,56.40
2023-02-13T10:27:23.930Z,56.50
2023-02-13T10:30:06.761Z,57.30
2023-02-13T10:32:47.498Z,57.60
2023-02-13T10:35:23.448Z,56.60
2023-02-13T10:37:55.277Z,57.50
2023-02-13T10:40:29.741Z,57.80
2023-02-13T10:43:09.404Z,57.80
2023-02-13T10:46:04.456Z,57.90
2023-02-13T10:48:47.030Z,58.10
2023-02-13T10:51:25.600Z,56.70
2023-02-13T10:54:11.119Z,56.80
2023-02-13T10:56:42.275Z,56.10
2023-02-13T10:59:36.189Z,55.30
2023-02-13T11:02:18.908Z,55.30
2023-02-13T11:04:47.882Z,55.10
2023-02-13T11:07:19.401Z,55.40
2023-02-13T11:09:50.232Z,55.30
2023-02-13T11:12:26.127Z,55.20
2023-02-13T11:15:00.745Z,55.10
2023-02-13T11:17:32.572Z,54.40
2023-02-13T11:20:02.650Z,54.70
2023-02-13T11:22:36.294Z,54.60
2023-02-13T11:25:07.931Z,54.20
2023-02-13T11:27:40.794Z,53.90
2023-02-13T11:30:32.747Z,53.90
2023-02-13T11:33:03.275Z,53.40
2023-02-13T11:35:33.809Z,53.70
2023-02-13T11:38:21.958Z,53.90
2023-02-13T11:40:55.500Z,54.90
2023-02-13T11:43:29.145Z,53.80
2023-02-13T11:46:19.091Z,54.80
2023-02-13T11:49:02.227Z,54.70
2023-02-13T11:51:40.961Z,55.00
2023-02-13T11:54:32.324Z,54.00
2023-02-13T11:57:05.188Z,54.50
2023-02-13T11:59:41.433Z,54.40
2023-02-13T12:02:20.571Z,55.30
2023-02-13T12:04:50.818Z,55.00
2023-02-13T12:07:22.952Z,55.70
2023-02-13T12:09:58.567Z,55.00
2023-02-13T12:12:33.171Z,55.10
2023-02-13T12:15:05.259Z,55.50
2023-02-13T12:17:36.355Z,55.70
2023-02-13T12:20:05.081Z,55.80
2023-02-13T12:22:41.609Z,55.40
2023-02-13T12:25:45.424Z,55.50
2023-02-13T12:28:17.361Z,55.10
2023-02-13T12:31:08.549Z,54.80
2023-02-13T12:34:10.855Z,55.10
2023-02-13T12:36:48.186Z,54.90
2023-02-13T12:39:32.572Z,54.50
2023-02-13T12:42:15.301Z,53.70
2023-02-13T12:45:06.445Z,53.00
2023-02-13T12:47:41.165Z,52.80
2023-02-13T12:50:42.029Z,52.80
2023-02-13T12:53:33.061Z,53.20
2023-02-13T12:56:21.027Z,52.20
2023-02-13T12:59:02.383Z,51.70
2023-02-13T13:01:55.262Z,52.40
2023-02-13T13:04:36.587Z,52.70
2023-02-13T13:07:30.159Z,52.40
2023-02-13T13:10:16.014Z,52.40
2023-02-13T13:12:52.164Z,53.90
2023-02-13T13:15:30.845Z,53.60
2023-02-13T13:18:14.234Z,52.60
2023-02-13T13:20:58.270Z,53.70
2023-02-13T13:23:33.514Z,53.60
2023-02-13T13:26:12.569Z,54.00
2023-02-13T13:28:43.600Z,54.90
2023-02-13T13:31:15.221Z,55.40
2023-02-13T13:33:48.239Z,54.60
2023-02-13T13:36:24.964Z,53.50
2023-02-13T13:39:01.832Z,53.40
2023-02-13T13:41:40.015Z,52.90
2023-02-13T13:44:22.680Z,52.10
2023-02-13T13:47:00.081Z,50.90
2023-02-13T13:49:37.063Z,51.40
2023-02-13T13:52:20.566Z,51.20
2023-02-13T13:54:51.579Z,51.20
2023-02-13T13:57:21.868Z,50.90
2023-02-13T14:00:25.740Z,50.80
2023-02-13T14:03:29.587Z,50.00
2023-02-13T14:06:07.324Z,51.10
2023-02-13T14:09:29.259Z,52.10
2023-02-13T14:11:58.489Z,52.40
2023-02-13T14:14:55.491Z,52.70
2023-02-13T14:17:51.297Z,52.40
2023-02-13T14:20:32.227Z,53.00
2023-02-13T14:23:09.587Z,52.70
2023-02-13T14:25:38.820Z,52.70
2023-02-13T14:28:07.585Z,53.00
2023-02-13T14:30:40.382Z,52.40
2023-02-13T14:33:22.965Z,53.10
2023-02-13T14:36:02.020Z,52.50
2023-02-13T14:38:36.182Z,53.50
2023-02-13T14:41:07.232Z,54.00
2023-02-13T14:43:52.269Z,54.10
2023-02-13T14:46:31.043Z,53.80
2023-02-13T14:49:02.751Z,54.40
2023-02-13T14:51:36.350Z,55.60
2023-02-13T14:54:17.460Z,55.70
2023-02-13T14:56:48.293Z,55.90
2023-02-13T14:59:19.822Z,55.70
2023-02-13T15:01:53.376Z,56.40
2023-02-13T15:04:31.657Z,56.70
2023-02-13T15:07:02.458Z,56.40
2023-02-13T15:09:37.558Z,55.70
2023-02-13T15:12:06.281Z,56.80
2023-02-13T15:14:36.066Z,56.60
2023-02-13T15:17:12.934Z,54.90
2023-02-13T15:19:46.598Z,56.20
2023-02-13T15:22:21.295Z,55.70
2023-02-13T15:24:51.025Z,54.60
2023-02-13T15:27:23.653Z,53.70
2023-02-13T15:29:57.365Z,54.00
2023-02-13T15:32:31.468Z,55.10
2023-02-13T15:34:59.801Z,55.00
2023-02-13T15:37:30.779Z,55.00
2023-02-13T15:40:17.474Z,54.90
2023-02-13T15:42:46.520Z,55.00
2023-02-13T15:45:19.070Z,55.50
2023-02-13T15:47:49.398Z,55.30
2023-02-13T15:50:25.785Z,55.20
2023-02-13T15:52:55.924Z,55.60
2023-02-13T15:55:26.470Z,54.60
2023-02-13T15:57:57.020Z,54.50
2023-02-13T16:00:28.221Z,54.60
2023-02-13T16:03:01.256Z,55.70
2023-02-13T16:05:40.113Z,56.40
2023-02-13T16:08:45.276Z,57.30
2023-02-13T16:11:29.896Z,57.70
2023-02-13T16:14:17.515Z,57.70
2023-02-13T16:16:50.853Z,58.10
2023-02-13T16:19:25.635Z,57.80
2023-02-13T16:21:55.803Z,57.70
2023-02-13T16:24:25.136Z,56.70
2023-02-13T16:26:53.784Z,56.10
2023-02-13T16:29:25.804Z,55.50
2023-02-13T16:31:55.304Z,55.10
2023-02-13T16:34:27.540Z,54.60
2023-02-13T16:36:57.508Z,56.40
2023-02-13T16:39:28.905Z,58.30
2023-02-13T16:41:57.494Z,57.70
2023-02-13T16:44:28.760Z,57.20
2023-02-13T16:46:58.993Z,56.80
2023-02-13T16:49:30.630Z,58.10
2023-02-13T16:52:02.126Z,58.30
2023-02-13T16:54:38.820Z,58.80
2023-02-13T16:57:24.030Z,58.80
2023-02-13T16:59:56.586Z,58.70
2023-02-13T17:02:26.945Z,59.70
2023-02-13T17:04:59.725Z,59.20
2023-02-13T17:07:29.286Z,58.70
2023-02-13T17:09:59.938Z,57.50
2023-02-13T17:12:29.908Z,57.20
2023-02-13T17:14:59.827Z,56.60
2023-02-13T17:17:30.018Z,56.20
2023-02-13T17:19:59.957Z,55.80
2023-02-13T17:22:35.606Z,55.40
2023-02-13T17:25:07.406Z,53.90
2023-02-13T17:27:35.993Z,53.10
2023-02-13T17:30:04.796Z,53.10
2023-02-13T17:32:32.969Z,53.00
2023-02-13T17:35:02.559Z,53.60
2023-02-13T17:37:32.749Z,53.80
2023-02-13T17:40:00.917Z,53.10
2023-02-13T17:42:30.692Z,53.00
2023-02-13T17:45:00.083Z,52.90
2023-02-13T17:47:30.237Z,53.50
2023-02-13T17:50:08.764Z,54.20
2023-02-13T17:52:40.165Z,54.30
2023-02-13T17:55:17.114Z,54.10
2023-02-13T17:57:45.445Z,54.40
2023-02-13T18:00:14.856Z,54.30
2023-02-13T18:02:44.216Z,54.20
2023-02-13T18:05:12.927Z,53.40
2023-02-13T18:07:43.151Z,53.80
2023-02-13T18:10:15.912Z,52.90
2023-02-13T18:12:44.762Z,53.00
2023-02-13T18:15:13.379Z,53.70
2023-02-13T18:17:42.089Z,53.90
2023-02-13T18:20:13.052Z,53.20
2023-02-13T18:22:43.006Z,52.00
2023-02-13T18:25:12.405Z,50.30
2023-02-13T18:27:40.921Z,49.70
2023-02-13T18:30:10.229Z,49.70
2023-02-13T18:32:38.564Z,49.40
2023-02-13T18:35:08.070Z,49.40
2023-02-13T18:37:36.344Z,49.20
2023-02-13T18:40:06.835Z,49.40
2023-02-13T18:42:36.947Z,48.60
2023-02-13T18:45:05.792Z,49.40
2023-02-13T18:47:34.065Z,50.70
2023-02-13T18:50:02.249Z,49.90
2023-02-13T18:52:30.467Z,50.50
2023-02-13T18:54:58.666Z,50.50
2023-02-13T18:57:29.379Z,50.10
2023-02-13T18:59:58.767Z,50.50
2023-02-13T19:02:27.172Z,49.80
2023-02-13T19:04:55.478Z,49.80
2023-02-13T19:07:23.634Z,50.40
2023-02-13T19:09:51.772Z,50.70
2023-02-13T19:12:20.006Z,51.70
2023-02-13T19:14:49.522Z,52.50
2023-02-13T19:17:17.813Z,52.50
2023-02-13T19:19:46.677Z,51.80
2023-02-13T19:22:14.911Z,51.20
2023-02-13T19:24:43.057Z,51.30
2023-02-13T19:27:11.337Z,51.80
2023-02-13T19:29:39.498Z,51.80
2023-02-13T19:32:10.021Z,51.60
2023-02-13T19:34:41.080Z,51.30
2023-02-13T19:37:12.871Z,51.00
2023-02-13T19:39:41.188Z,50.60
2023-02-13T19:42:09.387Z,50.50
2023-02-13T19:44:37.643Z,50.40
2023-02-13T19:47:05.860Z,50.20
2023-02-13T19:49:35.397Z,50.40
2023-02-13T19:52:04.404Z,50.50
2023-02-13T19:54:32.670Z,51.20
2023-02-13T19:57:05.635Z,51.60
2023-02-13T19:59:34.091Z,51.60
2023-02-13T20:02:02.344Z,51.20
2023-02-13T20:04:32.169Z,50.60
2023-02-13T20:07:01.713Z,50.80
2023-02-13T20:09:30.021Z,49.70
2023-02-13T20:11:58.638Z,50.50
2023-02-13T20:14:26.806Z,50.80
2023-02-13T20:16:58.206Z,50.00
2023-02-13T20:19:27.752Z,49.80
2023-02-13T20:21:58.290Z,49.50
2023-02-13T20:24:28.477Z,49.10
2023-02-13T20:26:58.875Z,49.00
2023-02-13T20:29:27.140Z,48.40
2023-02-13T20:31:55.439Z,48.90
2023-02-13T20:34:29.510Z,48.70
2023-02-13T20:37:00.937Z,49.20
2023-02-13T20:39:30.989Z,48.90
2023-02-13T20:41:59.269Z,49.30
2023-02-13T20:44:28.132Z,49.30
2023-02-13T20:46:56.304Z,49.10
2023-02-13T20:49:26.596Z,47.90
2023-02-13T20:51:55.064Z,48.20
2023-02-13T20:54:23.315Z,48.90
2023-02-13T20:56:52.854Z,49.40
2023-02-13T20:59:20.992Z,49.90
2023-02-13T21:01:49.165Z,49.80
2023-02-13T21:04:19.281Z,50.00
2023-02-13T21:06:48.701Z,50.80
2023-02-13T21:09:16.979Z,51.60
2023-02-13T21:11:48.205Z,51.90
2023-02-13T21:14:18.942Z,51.00
2023-02-13T21:16:47.187Z,51.10
2023-02-13T21:19:20.321Z,50.70
2023-02-13T21:21:49.046Z,50.60
2023-02-13T21:24:19.902Z,50.50
2023-02-13T21:26:49.360Z,50.30
2023-02-13T21:29:19.242Z,50.10
2023-02-13T21:31:48.645Z,50.30
2023-02-13T21:34:18.860Z,50.90
2023-02-13T21:36:47.662Z,50.90
2023-02-13T21:39:16.358Z,51.60
2023-02-13T21:41:47.090Z,50.40
2023-02-13T21:44:16.800Z,50.20
2023-02-13T21:46:47.146Z,50.00
2023-02-13T21:49:17.009Z,50.50
2023-02-13T21:51:45.827Z,51.20
2023-02-13T21:54:14.447Z,51.70
2023-02-13T21:56:43.843Z,51.40
2023-02-13T21:59:15.451Z,50.90
2023-02-13T22:01:50.064Z,50.50
2023-02-13T22:04:19.223Z,51.10
2023-02-13T22:06:49.658Z,50.50
2023-02-13T22:09:19.979Z,49.80
2023-02-13T22:11:49.501Z,49.90
2023-02-13T22:14:19.202Z,49.70
2023-02-13T22:16:51.215Z,49.80
2023-02-13T22:19:20.539Z,50.40
2023-02-13T22:21:48.744Z,50.50
2023-02-13T22:24:17.454Z,51.40
2023-02-13T22:26:46.444Z,51.60
2023-02-13T22:29:16.373Z,51.50
2023-02-13T22:31:44.989Z,51.00
2023-02-13T22:34:15.553Z,50.90
2023-02-13T22:36:43.853Z,50.40
2023-02-13T22:39:12.882Z,50.80
2023-02-13T22:41:41.051Z,50.60
2023-02-13T22:44:09.276Z,50.40
2023-02-13T22:46:37.501Z,50.10
2023-02-13T22:49:05.843Z,50.50
2023-02-13T22:51:37.092Z,51.10
2023-02-13T22:54:07.695Z,51.40
2023-02-13T22:56:36.076Z,51.40
2023-02-13T22:59:04.510Z,51.20
2023-02-13T23:01:32.685Z,51.40
2023-02-13T23:04:00.928Z,52.40
2023-02-13T23:06:29.208Z,52.70
2023-02-13T23:08:58.750Z,53.00
2023-02-13T23:11:46.007Z,52.30
2023-02-13T23:14:15.086Z,53.10
2023-02-13T23:17:01.850Z,52.20
2023-02-13T23:19:30.693Z,52.30
2023-02-13T23:21:59.641Z,50.40
2023-02-13T23:24:30.086Z,49.60
2023-02-13T23:26:58.366Z,48.70
2023-02-13T23:29:26.786Z,48.40
2023-02-13T23:31:56.838Z,49.00
2023-02-13T23:34:25.111Z,50.10
2023-02-13T23:36:53.281Z,51.10
2023-02-13T23:39:24.248Z,52.00
2023-02-13T23:41:54.040Z,52.50
2023-02-13T23:44:23.359Z,53.10
2023-02-13T23:46:51.483Z,53.80
2023-02-13T23:49:20.894Z,54.00
2023-02-13T23:51:49.161Z,53.80
2023-02-13T23:54:18.067Z,54.00
2023-02-13T23:56:46.615Z,54.80
2023-02-13T23:59:17.477Z,55.30
